Archival Weather

Tokyo Intl

Tokyo, Japan (RJTT)

Report from: Friday, September 22, 2023 11:00 PM JST
Current time: Sunday, February 25, 2024 1:56 AM JST

Current weather – Weather history – Daily summaries
Weather forecast

Present weatherRain showers, rain showers, mist
Temperature23.0°C (73.4°F)
Dew point23.0°C (73.4°F)
Winds 15 kts (7.7 m/s, 17.3 mph) North-Northeast (20°)
Visibility5 mi. (8 km)
Clouds Few clouds 500 ft. (152 m)
Few clouds 500 ft. (152 m)
Ceiling: Broken clouds 800 ft. (244 m)
Scattered clouds 1,500 ft. (457 m)
Broken clouds 3,000 ft. (914 m)
Altimeter29.91 in.Hg (1013 mB)
Relative humidity100 %
Density altitude1,316 ft. (401 m)
Flight conditions Instrument Meteorological Conditions
Raw dataRJTT 221400Z 02015KT 8000 SHRA FEW005 SCT015 BKN030 23/23 Q1013 TEMPO 3000 SHRA BR FEW005 BKN008
An error has occurred. This application may no longer respond until reloaded. Reload 🗙